Time;durP1;ratioP1;P1;durP2;ratioP2;P2;SDS_P1;SDS_P2;PMS_P1;PMS_P2;Temp;Humidity;BMP_temperature;BMP_pressure;BME280_temperature;BME280_humidity;BME280_pressure;Samples;Min_cycle;Max_cycle;Signal;HPM_P1;HPM_P2
2023/01/25 00:00:24;;;;;;;17.63;12.40;;;;;;;1.32;59.41;101751.56;10358092;28;20248;-64
2023/01/25 00:05:26;;;;;;;18.20;12.77;;;;;;;0.35;60.57;101699.03;10383680;28;20241;-64
2023/01/25 00:10:27;;;;;;;17.33;12.27;;;;;;;-0.05;61.17;101645.53;10366565;28;20247;-66
2023/01/25 00:15:29;;;;;;;18.27;12.27;;;;;;;0.77;59.59;101699.72;10394842;28;20240;-65
2023/01/25 00:20:31;;;;;;;16.30;11.90;;;;;;;1.40;58.54;101733.59;10392286;28;20653;-64
2023/01/25 00:25:33;;;;;;;17.27;12.33;;;;;;;0.79;59.30;101705.78;10394604;28;20246;-67
2023/01/25 00:30:34;;;;;;;18.43;12.83;;;;;;;0.45;60.09;101676.59;10391112;28;20593;-66
2023/01/25 00:35:37;;;;;;;17.13;12.30;;;;;;;1.10;58.83;101723.59;10396612;28;20235;-67
2023/01/25 00:40:39;;;;;;;20.90;14.00;;;;;;;0.97;58.90;101696.97;10383968;28;20243;-66
2023/01/25 00:45:40;;;;;;;18.10;11.40;;;;;;;1.31;58.33;101716.41;10387033;28;20754;-66
2023/01/25 00:50:42;;;;;;;16.30;12.60;;;;;;;0.53;60.03;101652.53;10394477;28;20236;-65
2023/01/25 00:55:53;;;;;;;16.33;11.87;;;;;;;0.98;59.83;101671.44;10389620;28;20243;-64
2023/01/25 01:00:55;;;;;;;16.77;11.40;;;;;;;0.26;60.51;101633.63;10387567;28;20261;-64
2023/01/25 01:06:00;;;;;;;13.97;10.93;;;;;;;1.20;58.69;101692.34;10388030;28;20319;-66
2023/01/25 01:11:05;;;;;;;16.27;11.33;;;;;;;0.44;60.21;101634.53;10384778;28;20240;-65
2023/01/25 01:16:10;;;;;;;17.03;12.20;;;;;;;0.84;59.92;101651.06;10392487;28;20225;-68
2023/01/25 01:21:13;;;;;;;15.27;11.67;;;;;;;2.03;58.07;101729.50;10391527;28;20240;-66
2023/01/25 01:26:20;;;;;;;15.57;11.40;;;;;;;0.30;60.64;101612.31;10384896;28;20236;-67
2023/01/25 01:31:23;;;;;;;17.33;11.37;;;;;;;0.26;60.18;101612.56;10388323;28;20240;-66
2023/01/25 01:36:27;;;;;;;14.73;10.97;;;;;;;1.00;60.04;101656.41;10385774;28;20237;-65
2023/01/25 01:41:28;;;;;;;15.60;12.40;;;;;;;0.02;61.14;101604.88;10386666;28;20232;-66
2023/01/25 01:46:38;;;;;;;14.73;12.03;;;;;;;0.79;59.76;101642.50;10379181;28;20255;-65
2023/01/25 01:51:53;;;;;;;15.67;12.10;;;;;;;0.08;60.94;101612.47;10390577;28;20243;-66
2023/01/25 01:57:04;;;;;;;18.27;13.20;;;;;;;-0.13;61.06;101598.53;10384921;28;20243;-65
2023/01/25 02:02:06;;;;;;;16.57;12.10;;;;;;;0.28;60.91;101619.44;10375878;28;20239;-67
2023/01/25 02:07:19;;;;;;;17.43;12.23;;;;;;;0.47;60.30;101621.22;10387525;28;20239;-68
2023/01/25 02:12:22;;;;;;;16.03;12.77;;;;;;;1.08;60.15;101656.88;10386424;28;20598;-65
2023/01/25 02:17:34;;;;;;;17.30;12.60;;;;;;;0.11;61.96;101603.59;10380197;28;20610;-65
2023/01/25 02:22:50;;;;;;;16.80;12.23;;;;;;;0.52;60.15;101631.53;10370527;28;20630;-65
2023/01/25 02:28:05;;;;;;;16.97;12.20;;;;;;;0.99;60.12;101649.44;10376758;28;20909;-65
2023/01/25 02:33:07;;;;;;;15.93;11.97;;;;;;;0.74;61.04;101633.97;10383003;28;20244;-66
2023/01/25 02:38:12;;;;;;;19.80;14.07;;;;;;;0.97;60.53;101632.84;10371533;28;20241;-66
2023/01/25 02:43:15;;;;;;;20.47;13.43;;;;;;;0.38;59.79;101609.34;10368334;28;20235;-65
2023/01/25 02:48:16;;;;;;;17.00;12.07;;;;;;;0.98;60.24;101630.16;10382752;28;20237;-65
2023/01/25 02:53:18;;;;;;;17.50;12.53;;;;;;;1.75;59.16;101671.09;10360415;28;21061;-65
2023/01/25 02:58:19;;;;;;;18.13;13.07;;;;;;;1.05;59.56;101628.91;10376114;28;20231;-66
2023/01/25 03:03:21;;;;;;;17.77;13.27;;;;;;;0.10;61.07;101567.66;10378966;28;20350;-65
2023/01/25 03:08:23;;;;;;;19.17;12.97;;;;;;;0.27;60.13;101580.00;10380942;28;20240;-65
2023/01/25 03:13:25;;;;;;;18.53;13.50;;;;;;;0.41;60.50;101580.22;10380100;28;21998;-65
2023/01/25 03:18:27;;;;;;;18.00;13.07;;;;;;;1.69;58.39;101681.97;10383714;28;20530;-65
2023/01/25 03:23:28;;;;;;;18.37;13.10;;;;;;;0.36;60.54;101569.06;10360988;28;20246;-65
2023/01/25 03:28:30;;;;;;;19.70;15.10;;;;;;;1.27;60.18;101622.53;10372618;28;20236;-66
2023/01/25 03:33:32;;;;;;;21.57;14.23;;;;;;;0.36;61.00;101569.06;10372349;28;20581;-65
2023/01/25 03:38:34;;;;;;;19.90;14.20;;;;;;;0.20;61.06;101542.59;10358844;28;20608;-66
2023/01/25 03:43:36;;;;;;;20.87;14.00;;;;;;;0.77;60.06;101587.25;10371445;28;20232;-66
2023/01/25 03:48:38;;;;;;;20.67;14.27;;;;;;;0.07;61.29;101544.09;10388267;28;20232;-65
2023/01/25 03:53:39;;;;;;;19.30;13.87;;;;;;;0.94;59.50;101607.50;10391568;22;20297;-37
2023/01/25 03:58:41;;;;;;;20.67;14.63;;;;;;;1.41;59.52;101622.72;10345443;28;20247;-38
2023/01/25 04:03:43;;;;;;;20.13;14.87;;;;;;;0.56;60.92;101568.09;10350347;28;20458;-37
2023/01/25 04:08:45;;;;;;;19.13;14.03;;;;;;;1.84;58.51;101667.09;10343597;28;20596;-37
2023/01/25 04:13:46;;;;;;;25.33;13.67;;;;;;;0.36;60.60;101561.16;10342916;28;20240;-38
2023/01/25 04:18:48;;;;;;;22.47;14.97;;;;;;;0.58;61.09;101563.59;10354241;28;20242;-37
2023/01/25 04:23:50;;;;;;;23.87;15.80;;;;;;;1.11;60.53;101600.50;10335184;28;20248;-36
2023/01/25 04:28:51;;;;;;;22.80;15.33;;;;;;;-0.35;62.50;101521.50;10346925;28;20615;-37
2023/01/25 04:33:54;;;;;;;21.17;15.07;;;;;;;0.75;61.12;101577.69;10349905;28;20640;-37
2023/01/25 04:38:56;;;;;;;19.43;14.40;;;;;;;0.49;60.68;101546.47;10328101;28;20236;-38
2023/01/25 04:43:58;;;;;;;23.17;14.93;;;;;;;1.06;60.22;101593.69;10287263;28;20977;-37
2023/01/25 04:49:00;;;;;;;21.40;14.47;;;;;;;0.53;61.48;101541.00;10257789;28;20244;-38
2023/01/25 04:54:01;;;;;;;21.80;15.23;;;;;;;0.54;61.03;101537.47;10316775;28;20684;-38
2023/01/25 04:59:03;;;;;;;21.70;15.63;;;;;;;0.57;61.48;101529.41;10224789;28;20236;-37
2023/01/25 05:04:05;;;;;;;21.43;14.33;;;;;;;0.47;61.14;101542.19;10293008;28;20452;-37
2023/01/25 05:09:08;;;;;;;23.13;15.50;;;;;;;0.42;61.61;101529.22;10342211;28;20233;-37
2023/01/25 05:14:10;;;;;;;23.73;15.33;;;;;;;0.68;61.25;101541.13;10337813;28;20238;-38
2023/01/25 05:19:12;;;;;;;22.10;15.20;;;;;;;1.33;60.50;101581.84;10340628;28;20245;-37
2023/01/25 05:24:13;;;;;;;21.97;14.17;;;;;;;0.95;60.45;101556.47;10326591;28;20249;-37
2023/01/25 05:29:15;;;;;;;22.93;15.10;;;;;;;1.92;58.69;101637.66;10330155;28;20232;-37
2023/01/25 05:34:17;;;;;;;20.70;15.13;;;;;;;0.94;60.84;101557.41;10336946;28;20237;-37
2023/01/25 05:39:19;;;;;;;21.80;14.23;;;;;;;0.47;61.86;101505.31;10322623;28;20236;-38
2023/01/25 05:44:21;;;;;;;19.57;13.87;;;;;;;0.38;60.59;101521.56;10313516;28;20243;-38
2023/01/25 05:49:23;;;;;;;17.97;13.20;;;;;;;1.34;60.05;101575.63;10328523;28;20294;-38
2023/01/25 05:54:25;;;;;;;19.20;13.73;;;;;;;0.66;61.60;101528.94;10328725;28;20910;-37
2023/01/25 05:59:26;;;;;;;21.77;14.57;;;;;;;0.85;61.24;101549.97;10312933;28;20252;-37
2023/01/25 06:04:28;;;;;;;17.93;13.50;;;;;;;0.17;62.29;101497.13;10330654;28;20243;-37
2023/01/25 06:09:30;;;;;;;20.37;12.73;;;;;;;-0.20;63.32;101478.66;10298566;28;20310;-37
2023/01/25 06:14:32;;;;;;;18.27;12.27;;;;;;;0.56;62.21;101512.75;10315442;28;20607;-37
2023/01/25 06:19:33;;;;;;;19.83;13.60;;;;;;;-0.40;64.48;101455.97;10318251;28;20247;-37
2023/01/25 06:24:35;;;;;;;18.83;13.27;;;;;;;0.74;60.95;101523.28;10333295;28;20236;-37
2023/01/25 06:29:37;;;;;;;19.77;12.80;;;;;;;0.59;62.40;101502.03;10284768;28;20233;-37
2023/01/25 06:34:38;;;;;;;19.73;13.20;;;;;;;-0.07;63.06;101469.28;10312297;28;20236;-37
2023/01/25 06:39:40;;;;;;;18.00;12.60;;;;;;;-0.23;62.62;101449.03;10274299;28;20259;-37
2023/01/25 06:44:42;;;;;;;21.10;13.50;;;;;;;0.46;61.97;101491.28;10272926;28;20239;-37
2023/01/25 06:49:43;;;;;;;19.30;13.23;;;;;;;-0.23;63.09;101441.13;10302871;28;20709;-38
2023/01/25 06:54:45;;;;;;;17.43;12.00;;;;;;;0.83;60.60;101499.09;10287737;28;20710;-38
2023/01/25 06:59:46;;;;;;;17.13;11.97;;;;;;;-0.46;63.19;101433.41;10326131;28;20244;-37
2023/01/25 07:04:48;;;;;;;17.97;13.03;;;;;;;0.65;61.76;101477.19;10298920;28;20244;-38
2023/01/25 07:09:50;;;;;;;19.23;12.97;;;;;;;-0.16;62.33;101451.31;10269273;28;20230;-37
2023/01/25 07:14:52;;;;;;;18.13;12.53;;;;;;;0.68;60.68;101495.47;10243460;28;20234;-38
2023/01/25 07:19:53;;;;;;;18.43;13.00;;;;;;;0.19;60.81;101468.94;10344482;28;20240;-38
2023/01/25 07:24:57;;;;;;;17.83;12.07;;;;;;;-0.19;62.41;101445.34;10346647;28;20721;-37
2023/01/25 07:30:00;;;;;;;18.97;13.07;;;;;;;-0.09;62.80;101451.88;10275379;28;20237;-37
2023/01/25 07:35:02;;;;;;;17.30;11.90;;;;;;;0.01;63.12;101457.53;10347441;28;20248;-38
2023/01/25 07:40:03;;;;;;;16.23;11.43;;;;;;;-0.08;61.77;101459.69;10344694;28;20251;-38
2023/01/25 07:45:06;;;;;;;20.13;14.07;;;;;;;-0.18;62.54;101450.53;10277127;28;20222;-37
2023/01/25 07:50:09;;;;;;;19.07;13.77;;;;;;;-0.53;62.86;101433.78;10288126;28;20247;-38
2023/01/25 07:55:11;;;;;;;21.10;14.60;;;;;;;0.64;61.16;101501.81;10347783;28;20247;-37
2023/01/25 08:00:14;;;;;;;21.20;14.20;;;;;;;-0.21;62.17;101447.19;10261479;28;20245;-37
2023/01/25 08:05:15;;;;;;;18.47;11.53;;;;;;;0.41;60.80;101484.53;10250357;28;20324;-38
2023/01/25 08:10:17;;;;;;;18.77;12.57;;;;;;;-0.72;63.43;101425.84;10282436;28;20639;-37
2023/01/25 08:15:19;;;;;;;19.97;13.20;;;;;;;-0.89;63.41;101421.34;10201394;28;20300;-37
2023/01/25 08:20:21;;;;;;;16.53;11.50;;;;;;;-0.10;61.72;101452.78;10203494;28;20232;-38
2023/01/25 08:25:23;;;;;;;18.27;12.37;;;;;;;0.74;60.87;101500.41;10300641;28;20244;-37
2023/01/25 08:30:24;;;;;;;16.33;10.83;;;;;;;0.16;61.58;101475.22;10261719;28;20248;-37
2023/01/25 08:35:26;;;;;;;16.90;11.40;;;;;;;-0.03;61.70;101453.34;10300886;28;22599;-37
2023/01/25 08:40:28;;;;;;;16.83;10.93;;;;;;;0.49;60.67;101482.34;10304637;28;20233;-37
2023/01/25 08:45:33;;;;;;;17.70;11.53;;;;;;;0.94;60.45;101504.69;10242677;28;20262;-37
2023/01/25 08:50:35;;;;;;;19.67;11.83;;;;;;;0.77;59.47;101513.44;10324884;28;20233;-38
2023/01/25 08:55:37;;;;;;;16.90;11.93;;;;;;;-0.45;62.84;101429.88;10264313;28;20593;-37
2023/01/25 09:00:39;;;;;;;19.90;12.27;;;;;;;0.25;61.32;101463.38;10241615;28;20239;-38
2023/01/25 09:05:41;;;;;;;17.73;11.37;;;;;;;0.20;61.63;101449.59;10293295;28;20237;-37
2023/01/25 09:10:43;;;;;;;19.40;13.27;;;;;;;0.04;61.35;101449.47;10341439;28;20233;-37
2023/01/25 09:15:45;;;;;;;24.70;14.53;;;;;;;-0.41;62.80;101422.69;10315634;28;20244;-37
2023/01/25 09:20:46;;;;;;;18.40;11.80;;;;;;;0.25;60.14;101469.47;10328233;28;20233;-37
2023/01/25 09:25:55;;;;;;;19.17;12.13;;;;;;;-0.32;61.26;101427.50;10299182;28;20254;-37
2023/01/25 09:31:00;;;;;;;21.07;11.67;;;;;;;1.21;60.32;101502.38;10305866;28;20813;-37
2023/01/25 09:36:20;;;;;;;19.00;10.87;;;;;;;0.79;60.26;101481.75;10206015;28;20695;-37
2023/01/25 09:41:47;;;;;;;21.23;13.20;;;;;;;0.93;60.04;101508.22;10200959;28;20765;-38
2023/01/25 09:47:01;;;;;;;20.13;13.13;;;;;;;0.74;59.83;101483.75;10260204;28;20238;-37
2023/01/25 09:52:24;;;;;;;19.47;12.63;;;;;;;0.36;59.83;101458.44;10236097;28;20236;-37
2023/01/25 09:57:31;;;;;;;16.93;11.50;;;;;;;1.42;58.74;101541.75;10344907;28;20246;-38
2023/01/25 10:02:43;;;;;;;16.70;11.00;;;;;;;1.08;59.34;101514.50;10345470;28;20714;-37
2023/01/25 10:08:09;;;;;;;18.50;12.57;;;;;;;0.95;60.05;101498.47;10344865;28;20762;-37
2023/01/25 10:13:16;;;;;;;23.70;13.23;;;;;;;0.39;60.94;101455.63;10335986;28;20235;-37
2023/01/25 10:18:22;;;;;;;20.43;13.07;;;;;;;1.19;59.56;101504.25;10326678;28;20234;-37
2023/01/25 10:23:45;;;;;;;20.80;13.63;;;;;;;0.22;60.67;101435.41;10340180;28;20236;-37
2023/01/25 10:28:56;;;;;;;17.87;12.47;;;;;;;0.89;59.39;101482.13;10325234;28;20324;-37
2023/01/25 10:34:01;;;;;;;19.70;13.23;;;;;;;0.83;60.43;101468.34;10319612;28;20242;-37
2023/01/25 10:39:06;;;;;;;22.53;13.10;;;;;;;0.23;61.37;101431.00;10326105;28;20240;-38
2023/01/25 10:44:21;;;;;;;19.17;13.43;;;;;;;0.13;61.16;101425.34;10343302;28;20276;-37
2023/01/25 10:49:30;;;;;;;22.03;13.30;;;;;;;0.30;61.12;101420.06;10303416;28;20227;-37
2023/01/25 10:54:32;;;;;;;21.10;13.70;;;;;;;0.93;59.67;101460.78;10302854;28;20236;-38
2023/01/25 10:59:35;;;;;;;21.90;14.63;;;;;;;0.27;61.15;101419.38;10322760;28;20452;-37
2023/01/25 11:06:30;;;;;;;21.70;13.60;;;;;;;-1.33;65.59;101396.13;10583767;27;20309;-63
2023/01/25 11:11:37;;;;;;;24.73;15.20;;;;;;;-1.02;65.59;101400.06;10485883;28;20249;-63
2023/01/25 11:16:45;;;;;;;22.33;15.40;;;;;;;-0.28;63.79;101380.88;10469226;28;20233;-63
2023/01/25 11:21:54;;;;;;;29.20;16.90;;;;;;;-1.02;64.75;101339.63;10474758;28;20237;-62
2023/01/25 11:27:21;;;;;;;21.33;13.40;;;;;;;-0.55;63.63;101339.19;10481269;28;20616;-63
2023/01/25 11:32:24;;;;;;;20.80;13.90;;;;;;;-0.06;63.05;101344.66;10477617;28;20235;-63
2023/01/25 11:37:45;;;;;;;22.23;13.77;;;;;;;-0.10;62.67;101347.50;10471185;28;20590;-62
2023/01/25 11:43:05;;;;;;;20.57;12.90;;;;;;;-0.36;62.59;101319.88;10437047;28;20249;-61
2023/01/25 11:48:45;;;;;;;17.30;12.80;;;;;;;-0.85;63.32;101281.00;10445426;28;20237;-64
2023/01/25 11:53:47;;;;;;;19.03;12.03;;;;;;;0.03;62.68;101309.13;10470514;28;20242;-62
2023/01/25 11:59:04;;;;;;;18.23;11.77;;;;;;;-0.39;62.77;101286.66;10456286;28;20345;-63
2023/01/25 12:04:23;;;;;;;21.13;13.17;;;;;;;-1.01;63.27;101250.19;10461384;28;20730;-62
2023/01/25 12:09:36;;;;;;;18.60;13.50;;;;;;;-0.90;63.55;101241.78;10407042;28;22134;-61
2023/01/25 12:15:03;;;;;;;23.73;15.10;;;;;;;-0.53;62.39;101237.38;10452951;28;20231;-63
2023/01/25 12:20:32;;;;;;;19.77;13.07;;;;;;;-0.94;63.48;101227.09;10412754;28;20242;-63
2023/01/25 12:25:48;;;;;;;20.10;12.37;;;;;;;0.60;61.07;101302.69;10422962;28;20237;-63
2023/01/25 12:30:59;;;;;;;19.43;13.10;;;;;;;0.32;60.80;101264.63;10413622;28;20246;-65
2023/01/25 12:36:18;;;;;;;20.20;12.90;;;;;;;0.81;59.72;101292.75;10457350;28;20724;-62
2023/01/25 12:41:42;;;;;;;22.83;13.67;;;;;;;-0.06;61.50;101226.22;10464936;28;20465;-64
2023/01/25 12:47:09;;;;;;;21.17;14.27;;;;;;;-0.75;62.34;101192.88;10379580;28;20231;-62
2023/01/25 12:52:35;;;;;;;23.03;14.47;;;;;;;-0.30;62.29;101207.31;10351596;28;20300;-62
2023/01/25 12:58:14;;;;;;;20.20;14.33;;;;;;;-0.49;62.82;101199.47;10346072;28;20610;-63
2023/01/25 13:03:28;;;;;;;20.23;13.67;;;;;;;0.22;60.58;101237.09;10327726;28;20246;-62
2023/01/25 13:08:50;;;;;;;21.20;14.30;;;;;;;0.72;60.26;101254.59;10400934;28;20230;-63
2023/01/25 13:14:12;;;;;;;38.07;22.30;;;;;;;0.51;60.63;101238.16;10358229;28;20239;-62
2023/01/25 13:19:28;;;;;;;1571.27;781.53;;;;;;;0.81;60.56;101255.84;10310289;28;20239;-62
2023/01/25 13:24:54;;;;;;;432.17;249.80;;;;;;;0.28;59.78;101213.91;10395410;28;20372;-63
2023/01/25 13:30:02;;;;;;;40.73;31.03;;;;;;;0.84;60.02;101230.19;10407414;28;20422;-62
2023/01/25 13:35:31;;;;;;;25.10;17.10;;;;;;;0.23;60.93;101180.88;10356856;28;20730;-61
2023/01/25 13:40:36;;;;;;;47.57;32.97;;;;;;;-0.21;62.03;101152.50;10363141;28;20231;-62
2023/01/25 13:45:40;;;;;;;50.27;32.70;;;;;;;-0.11;61.23;101159.81;10479785;28;20246;-62
2023/01/25 13:51:07;;;;;;;50.93;31.40;;;;;;;-0.56;61.47;101127.09;10422430;28;20238;-62
2023/01/25 13:56:33;;;;;;;25.40;15.87;;;;;;;0.35;61.15;101179.34;10377880;28;20230;-63
2023/01/25 14:01:35;;;;;;;22.33;14.30;;;;;;;0.38;60.85;101180.03;10313192;28;20245;-62
2023/01/25 14:06:39;;;;;;;23.40;14.27;;;;;;;-0.29;61.75;101140.59;10406650;28;20231;-62
2023/01/25 14:11:50;;;;;;;40.93;31.73;;;;;;;-0.43;61.94;101122.91;10449861;28;20235;-62
2023/01/25 14:17:09;;;;;;;24.13;16.00;;;;;;;1.31;59.08;101252.16;10359839;28;20234;-64
2023/01/25 14:22:14;;;;;;;21.03;16.03;;;;;;;0.33;59.58;101166.28;10370182;28;20309;-65
2023/01/25 14:27:16;;;;;;;25.80;18.70;;;;;;;1.37;58.28;101243.94;10322477;28;20242;-64
2023/01/25 14:32:21;;;;;;;24.53;16.27;;;;;;;0.85;58.32;101204.69;10363856;28;20713;-63
2023/01/25 14:37:23;;;;;;;31.13;27.30;;;;;;;-0.07;60.37;101132.41;10447458;28;20235;-63
2023/01/25 14:42:25;;;;;;;17.47;12.67;;;;;;;-0.07;61.02;101127.13;10431179;28;20235;-61
2023/01/25 14:47:31;;;;;;;21.83;14.13;;;;;;;0.63;59.28;101168.13;10451151;28;20639;-62
2023/01/25 14:52:33;;;;;;;19.27;14.07;;;;;;;0.01;59.78;101118.84;10468167;28;20293;-62
2023/01/25 14:57:39;;;;;;;21.23;14.70;;;;;;;0.42;59.79;101146.47;10449519;28;20239;-64
2023/01/25 15:02:48;;;;;;;20.37;14.57;;;;;;;0.34;59.65;101131.09;10424365;28;20239;-65
2023/01/25 15:07:51;;;;;;;21.30;14.27;;;;;;;0.55;59.02;101138.75;10437708;28;20749;-64
2023/01/25 15:13:00;;;;;;;21.80;14.87;;;;;;;0.27;60.21;101106.88;10430135;28;20242;-63
2023/01/25 15:18:49;;;;;;;21.87;14.37;;;;;;;-0.47;60.25;101063.50;10456017;28;20264;-63
2023/01/25 15:23:52;;;;;;;23.60;14.03;;;;;;;0.59;59.28;101138.47;10453397;28;20235;-62
2023/01/25 15:29:06;;;;;;;22.77;14.63;;;;;;;0.28;59.34;101105.13;10468595;28;20234;-64
2023/01/25 15:34:20;;;;;;;20.50;12.47;;;;;;;0.72;59.34;101136.00;10475729;28;20230;-62
2023/01/25 15:39:22;;;;;;;21.40;14.50;;;;;;;0.34;59.04;101106.53;10476312;28;20234;-62
2023/01/25 15:44:24;;;;;;;17.23;11.80;;;;;;;0.95;58.83;101144.38;10476453;28;20283;-62
2023/01/25 15:49:28;;;;;;;19.23;12.93;;;;;;;0.49;59.33;101105.69;10440067;28;20243;-62
2023/01/25 15:54:29;;;;;;;18.67;11.87;;;;;;;-0.14;59.89;101049.47;10440014;28;20230;-64
2023/01/25 15:59:31;;;;;;;18.57;11.80;;;;;;;1.33;57.10;101160.63;10490540;28;20262;-63
2023/01/25 16:04:33;;;;;;;18.33;11.50;;;;;;;1.22;57.99;101134.03;10446567;28;20292;-63
2023/01/25 16:09:34;;;;;;;23.53;13.63;;;;;;;0.91;58.08;101105.97;10445072;28;20239;-61
2023/01/25 16:14:36;;;;;;;21.67;15.00;;;;;;;0.59;59.00;101077.88;10449037;28;20239;-68
2023/01/25 16:19:38;;;;;;;20.93;13.53;;;;;;;0.34;58.20;101078.41;10442895;28;20338;-59
2023/01/25 16:24:40;;;;;;;22.43;13.23;;;;;;;1.07;57.06;101125.22;10481841;28;20872;-61
2023/01/25 16:29:42;;;;;;;25.10;18.77;;;;;;;-0.14;58.14;101038.09;10487139;28;20276;-59
2023/01/25 16:34:44;;;;;;;20.10;15.30;;;;;;;0.36;59.01;101066.03;10448165;28;20614;-57
2023/01/25 16:39:46;;;;;;;15.10;12.07;;;;;;;0.40;57.78;101079.88;10477658;28;20242;-57
2023/01/25 16:44:47;;;;;;;17.77;12.67;;;;;;;-0.25;59.69;101028.13;10471908;28;20234;-60
2023/01/25 16:49:49;;;;;;;18.53;15.00;;;;;;;-0.81;59.43;101001.28;10421194;28;20240;-61
2023/01/25 16:54:51;;;;;;;21.27;16.20;;;;;;;-0.10;58.49;101043.13;10478203;28;20242;-60
2023/01/25 16:59:52;;;;;;;17.73;13.37;;;;;;;-0.34;58.82;101028.66;10476996;28;20233;-60
2023/01/25 17:04:54;;;;;;;18.10;13.93;;;;;;;-0.35;58.72;101034.84;10489537;28;20230;-60
2023/01/25 17:09:56;;;;;;;20.60;15.13;;;;;;;0.07;57.84;101060.63;10435311;28;20235;-60
2023/01/25 17:14:59;;;;;;;21.50;12.37;;;;;;;0.28;57.76;101066.44;10441261;28;20271;-66
2023/01/25 17:20:00;;;;;;;13.63;10.60;;;;;;;1.24;55.90;101132.16;10475908;28;20223;-66
2023/01/25 17:25:05;;;;;;;15.93;11.07;;;;;;;0.34;57.77;101057.34;10473861;28;20234;-59
2023/01/25 17:30:09;;;;;;;17.03;11.90;;;;;;;-1.08;58.94;100978.13;10442198;28;20232;-61
2023/01/25 17:35:11;;;;;;;22.07;15.07;;;;;;;0.35;57.74;101058.22;10477536;28;20296;-57
2023/01/25 17:40:13;;;;;;;32.10;23.57;;;;;;;0.42;57.91;101051.66;10471832;28;20242;-67
2023/01/25 17:45:15;;;;;;;45.23;36.20;;;;;;;-0.17;58.87;101019.84;10435495;28;20234;-59
2023/01/25 17:50:16;;;;;;;18.37;12.40;;;;;;;0.20;58.40;101037.06;10479130;28;20608;-60
2023/01/25 17:55:18;;;;;;;17.67;12.90;;;;;;;-0.34;58.80;100991.84;10480693;28;20239;-62
2023/01/25 18:00:20;;;;;;;15.97;12.00;;;;;;;-0.59;59.48;100979.97;10473246;28;20729;-63
2023/01/25 18:05:23;;;;;;;15.33;11.10;;;;;;;-0.41;60.26;100982.59;10476473;28;20260;-60
2023/01/25 18:10:24;;;;;;;14.53;11.83;;;;;;;0.68;57.68;101051.03;10477241;28;20245;-59
2023/01/25 18:15:26;;;;;;;15.10;11.20;;;;;;;-0.56;60.07;100979.00;10476419;28;20705;-60
2023/01/25 18:20:28;;;;;;;17.30;12.77;;;;;;;-0.62;59.60;100973.09;10476921;28;20696;-58
2023/01/25 18:25:34;;;;;;;17.60;12.73;;;;;;;0.17;58.47;100991.63;10484525;28;20300;-59
2023/01/25 18:30:42;;;;;;;19.93;12.57;;;;;;;-0.21;59.11;100976.22;10482203;28;20245;-60
2023/01/25 18:35:47;;;;;;;17.00;11.83;;;;;;;0.27;58.25;100991.00;10479719;28;20295;-60
2023/01/25 18:40:48;;;;;;;19.27;12.97;;;;;;;-0.98;60.07;100928.59;10481004;28;20732;-59
2023/01/25 18:45:55;;;;;;;16.03;11.60;;;;;;;-0.91;60.26;100937.00;10474150;28;20233;-60
2023/01/25 18:51:08;;;;;;;15.37;12.13;;;;;;;-0.71;59.27;100928.88;10478109;28;20225;-58
2023/01/25 18:56:15;;;;;;;17.70;13.30;;;;;;;0.01;58.71;100953.03;10485588;28;20241;-59
2023/01/25 19:01:19;;;;;;;21.07;13.57;;;;;;;0.57;57.39;100992.81;10472267;28;20243;-60
2023/01/25 19:06:23;;;;;;;17.30;12.70;;;;;;;-0.54;59.40;100928.00;10473165;28;20832;-60
2023/01/25 19:11:25;;;;;;;19.07;13.40;;;;;;;-0.83;59.78;100916.41;10474279;28;20247;-60
2023/01/25 19:16:27;;;;;;;18.50;13.60;;;;;;;-0.02;57.89;100955.00;10437447;28;20237;-60
2023/01/25 19:21:29;;;;;;;19.73;12.73;;;;;;;-1.18;60.85;100898.97;10482482;28;20291;-59
2023/01/25 19:26:30;;;;;;;35.50;25.73;;;;;;;-0.46;59.40;100915.28;10480705;28;20352;-60
2023/01/25 19:31:35;;;;;;;19.30;14.00;;;;;;;0.41;57.98;100963.91;10486027;28;20569;-59
2023/01/25 19:36:42;;;;;;;19.40;13.10;;;;;;;-0.50;59.07;100900.63;10476798;28;20270;-59
2023/01/25 19:41:44;;;;;;;18.30;13.10;;;;;;;-0.23;59.43;100910.53;10477170;28;20237;-60
2023/01/25 19:46:46;;;;;;;17.53;12.93;;;;;;;-0.86;59.60;100877.16;10473700;28;20246;-61
2023/01/25 19:51:51;;;;;;;18.33;12.23;;;;;;;-1.33;61.00;100865.63;10481763;28;20231;-62
2023/01/25 19:56:54;;;;;;;16.30;12.93;;;;;;;-0.97;59.71;100877.75;10474786;28;20234;-62
2023/01/25 20:01:56;;;;;;;16.67;12.17;;;;;;;-0.55;59.05;100883.38;10481967;28;20875;-62
2023/01/25 20:06:58;;;;;;;19.73;13.07;;;;;;;-1.50;60.91;100842.88;10483997;28;20293;-61
2023/01/25 20:12:01;;;;;;;19.77;14.17;;;;;;;0.15;58.76;100918.00;10483786;28;20235;-63
2023/01/25 20:17:05;;;;;;;19.23;13.60;;;;;;;-0.18;58.11;100891.84;10481634;28;20238;-63
2023/01/25 20:22:07;;;;;;;18.47;12.87;;;;;;;-0.96;59.68;100847.91;10483145;28;20240;-61
2023/01/25 20:27:09;;;;;;;17.03;12.47;;;;;;;0.89;57.14;100944.44;10476552;28;20238;-63
2023/01/25 20:32:10;;;;;;;19.23;12.30;;;;;;;-0.47;58.50;100860.13;10480955;28;20236;-63
2023/01/25 20:37:32;;;;;;;17.93;12.73;;;;;;;-1.07;59.21;100827.47;10477213;28;20238;-61
2023/01/25 20:42:33;;;;;;;16.60;12.70;;;;;;;-0.80;59.60;100851.38;10478616;28;20615;-64
2023/01/25 20:47:35;;;;;;;16.10;13.23;;;;;;;-0.65;59.01;100840.97;10483389;28;20596;-62
2023/01/25 20:52:37;;;;;;;16.67;13.27;;;;;;;-0.95;60.09;100828.56;10485489;28;20234;-62
2023/01/25 20:57:39;;;;;;;18.07;13.80;;;;;;;-0.88;59.77;100839.59;10479490;28;20234;-60
2023/01/25 21:02:41;;;;;;;16.83;13.10;;;;;;;-0.91;59.63;100824.00;10495988;28;20266;-60
2023/01/25 21:07:42;;;;;;;17.10;13.03;;;;;;;-1.03;60.44;100815.00;10483405;28;20428;-61
2023/01/25 21:12:44;;;;;;;20.43;13.77;;;;;;;-0.85;59.66;100813.16;10477755;28;20569;-59
2023/01/25 21:17:52;;;;;;;16.77;12.63;;;;;;;-1.37;60.27;100785.31;10482100;28;20237;-63
2023/01/25 21:22:53;;;;;;;17.53;12.53;;;;;;;-0.70;59.36;100811.47;10482890;28;20742;-61
2023/01/25 21:27:55;;;;;;;16.73;12.87;;;;;;;-1.51;60.24;100783.44;10478148;28;20443;-60
2023/01/25 21:32:57;;;;;;;17.33;13.50;;;;;;;-1.31;60.45;100792.88;10497145;28;20245;-61
2023/01/25 21:37:58;;;;;;;21.10;13.67;;;;;;;-1.14;59.72;100784.06;10481642;28;20241;-61
2023/01/25 21:43:00;;;;;;;16.97;12.17;;;;;;;-0.72;59.59;100801.03;10478748;28;20238;-67
2023/01/25 21:48:01;;;;;;;17.37;12.27;;;;;;;-0.46;58.42;100796.94;10488539;28;20240;-60
2023/01/25 21:53:03;;;;;;;17.13;13.10;;;;;;;-0.42;59.01;100805.50;10477919;28;20723;-60
2023/01/25 21:58:05;;;;;;;17.53;13.07;;;;;;;-1.34;59.97;100766.78;10475197;28;20252;-61
2023/01/25 22:03:07;;;;;;;19.03;14.50;;;;;;;-1.45;60.15;100762.06;10480225;28;20236;-61
2023/01/25 22:08:08;;;;;;;17.27;13.00;;;;;;;-1.39;60.37;100768.78;10469922;22;20247;-36
2023/01/25 22:13:10;;;;;;;19.33;13.00;;;;;;;-1.35;60.25;100765.06;10357304;28;20334;-36
2023/01/25 22:18:13;;;;;;;20.07;12.83;;;;;;;-1.00;60.46;100771.00;10352855;28;20241;-36
2023/01/25 22:23:15;;;;;;;18.10;13.47;;;;;;;-1.64;61.37;100756.97;10353359;28;20226;-36
2023/01/25 22:28:18;;;;;;;20.57;14.63;;;;;;;-1.59;61.15;100754.09;10353473;28;20608;-37
2023/01/25 22:33:20;;;;;;;18.20;13.13;;;;;;;-1.10;60.30;100756.69;10346005;28;20718;-37
2023/01/25 22:38:22;;;;;;;17.57;12.73;;;;;;;-1.13;60.04;100753.41;10354244;28;20240;-37
2023/01/25 22:43:23;;;;;;;20.13;13.53;;;;;;;0.24;56.44;100808.69;10352873;28;20240;-36
2023/01/25 22:48:25;;;;;;;17.57;12.97;;;;;;;0.83;55.82;100848.13;10356624;28;20250;-36
2023/01/25 22:53:27;;;;;;;20.63;13.37;;;;;;;-0.58;57.51;100766.06;10357957;28;20238;-37
2023/01/25 22:58:29;;;;;;;17.10;13.33;;;;;;;-1.03;58.42;100751.94;10358402;28;20230;-36
2023/01/25 23:03:31;;;;;;;18.83;13.70;;;;;;;-1.53;59.47;100731.91;10362296;28;20330;-37